EST,Max TemperatureF,Mean TemperatureF,Min TemperatureF,Max Dew PointF,MeanDew PointF,Min DewpointF,Max Humidity, Mean Humidity, Min Humidity, Max Sea Level PressureIn, Mean Sea Level PressureIn, Min Sea Level PressureIn, Max VisibilityMiles, Mean VisibilityMiles, Min VisibilityMiles, Max Wind SpeedMPH, Mean Wind SpeedMPH, Max Gust SpeedMPH,PrecipitationIn, CloudCover, Events, WindDirDegrees
2012-11-1,45,43,41,41,39,32,89,77,65,29.72,29.62,29.55,10,8,2,18,11,26,0.51,8,Rain,274
2012-11-2,44,41,38,36,32,30,79,69,58,29.98,29.84,29.69,10,10,6,21,14,30,0.03,8,Rain,309
2012-11-3,43,41,39,31,30,27,70,64,57,30.14,30.07,29.97,10,10,10,15,10,22,0.00,8,,327
2012-11-4,39,38,37,29,27,25,70,65,59,30.16,30.13,30.10,10,10,10,10,6,15,0.00,8,,332
2012-11-5,39,37,35,29,27,25,70,65,59,30.21,30.16,30.10,10,10,10,14,5,17,0.00,8,,349
2012-11-6,41,35,28,27,24,22,78,64,50,30.18,30.10,30.01,10,10,10,16,8,21,0.00,4,,113
2012-11-7,42,35,28,27,23,21,75,60,45,30.11,30.04,30.00,10,10,7,16,8,23,0.00,0,,86
2012-11-8,43,35,26,32,26,21,92,72,51,30.20,30.14,30.09,10,10,10,12,5,17,0.00,3,,311
2012-11-9,48,42,35,37,34,30,92,79,65,30.22,30.18,30.14,10,8,4,14,5,17,0.00,5,,223
2012-11-10,61,53,45,45,41,36,77,60,42,30.25,30.19,30.14,10,9,7,18,9,25,T,6,Rain,168
2012-11-11,69,63,57,37,36,34,43,36,28,30.27,30.19,30.08,10,10,10,22,13,35,0.00,0,,179
2012-11-12,69,53,37,54,42,28,93,62,31,30.29,30.07,29.93,10,8,2,30,18,41,0.56,6,Rain,226
2012-11-13,37,35,32,29,27,24,85,75,64,30.57,30.43,30.28,10,8,0,21,8,28,0.15,8,Snow,214
2012-11-14,39,34,29,28,26,22,85,71,56,30.61,30.54,30.45,10,10,10,9,3,14,0.00,5,,112
2012-11-15,44,37,30,30,26,23,85,67,49,30.44,30.38,30.32,10,10,10,9,4,13,0.00,0,,112
2012-11-16,47,37,27,35,30,25,92,76,60,30.53,30.44,30.34,10,9,6,9,3,12,0.00,1,,176
2012-11-17,52,41,30,39,33,28,96,73,50,30.65,30.59,30.51,10,5,2,9,3,12,0.00,0,,139
2012-11-18,55,44,32,39,32,28,89,65,41,30.58,30.53,30.45,10,9,2,16,8,21,0.00,0,,132
2012-11-19,53,45,36,37,33,28,85,68,50,30.45,30.36,30.21,10,8,6,16,6,21,0.00,0,,136
2012-11-20,52,43,34,37,33,30,89,71,52,30.21,30.17,30.12,10,10,9,7,3,20,0.00,0,,131
2012-11-21,52,41,30,43,35,27,92,79,66,30.25,30.22,30.17,10,6,2,7,3,9,0.00,0,,154
2012-11-22,61,50,38,39,33,27,76,59,42,30.21,30.13,29.95,10,10,10,20,10,25,0.00,0,,185
2012-11-23,56,45,33,46,34,23,89,66,43,29.91,29.81,29.75,10,8,2,30,18,41,0.17,7,Rain-Snow,241
2012-11-24,36,35,34,23,21,19,64,60,56,30.04,29.97,29.90,10,10,9,26,17,39,T,8,,285
2012-11-25,39,34,28,27,24,21,85,72,59,30.00,29.92,29.84,10,7,0,21,12,28,0.08,8,Fog-Snow,221
2012-11-26,39,37,34,28,24,22,70,61,52,30.26,30.14,29.96,10,10,10,17,9,24,0.00,8,,293
2012-11-27,36,33,30,25,23,20,69,63,56,30.33,30.28,30.24,10,10,10,9,3,13,0.00,8,,256
2012-11-28,37,33,28,27,23,20,72,63,54,30.31,30.27,30.23,10,10,6,18,11,25,T,8,,228
2012-11-29,45,38,30,30,24,20,78,60,41,30.34,30.30,30.23,10,10,8,18,9,24,0.00,0,,222
2012-11-30,45,40,34,34,28,21,92,72,52,30.30,30.26,30.20,10,9,7,18,8,23,0.00,6,,83